Thrali, Washington
Current Conditions -  °F | °C
As of 7:53 AM on Friday 24 Oct 2014 (Local Time) from KELN Reporting Station
Clear Clear  
Wind Chill: 34°   Ceiling: Unl
Heat Index: 38°   Visibility: 10mi
Dew Point: 35°   Wind: 5mph
Humidity: 89%   Direction: 80°E
Pressure: 30.06"   Gusts: NA
Location:  47.0155°N, 120.311°W
Report Text: KELN 241453Z AUTO 08004KT 10SM CLR 03/02 A3006 RMK AO2 SLP188 T00330017 53010
Loading
Personal Weather Stations






























Interactive Weather Map
Tropical Storm Tracking
New forecast layout! Learn more

10-Day Weather Forecast

Advertisements
Track Severe Weather on mobile